Latest Coastal Weather Observations for Gannett Cay

IDQ60701

Issued at 2:42 am EST Friday 3 July 2015 (issued every 10 minutes, with the page automatically refreshed every 10 minutes)

About coastal observations | Map of coastal stations | Coastal observations for QLD | Marine services | Other Formats
Station Details ID: 200831 Name: GANNET CAY Lat: -21.98 Lon: 152.47 Height: 2.3 m
Data from the previous 72 hours. | See also: Recent months for locations in Queensland
Date/Time
EST
Temp

°C
Wind Pressure Rain
since 9am
mm
Weather Cloud Vis
km
Sea
Height
m
Swell
Dir
 
Speed
knots
Gust
knots
hPa Trend Height
m
Period
s
Dir
03/02:30am 20.8 S 16 21 1017.4 - - - - - - - - -
03/02:00am 20.7 SSE 16 19 1017.5 - - - - - - - - -
03/01:30am 20.7 SSE 16 20 1017.9 - - - - - - - - -
03/01:00am 21.0 S 15 19 1018.1 - - - - - - - - -
03/12:30am 20.9 S 15 19 1018.4 - - - - - - - - -
03/12:00am 21.2 S 15 21 1018.5 - - - - - - - - -
 
Date/Time
EST
Temp

°C
Wind Pressure Rain
since 9am
mm
Weather Cloud Vis
km
Sea
Height
m
Swell
Dir
 
Speed
knots
Gust
knots
hPa Trend Height
m
Period
s
Dir
02/11:30pm 21.1 S 16 19 1018.8 - - - - - - - - -
02/11:00pm 21.3 S 15 17 1019.0 - - - - - - - - -
02/10:30pm 21.4 SSE 13 18 1019.4 - - - - - - - - -
02/10:00pm 21.2 SSE 11 13 1019.5 - - - - - - - - -
02/09:30pm 21.2 SSE 12 14 1019.7 - - - - - - - - -
02/09:00pm 21.2 SSE 13 17 1019.5 - - - - - - - - -
02/08:30pm 21.2 SSE 13 17 1019.5 - - - - - - - - -
02/08:00pm 21.2 SSE 14 17 1019.3 - - - - - - - - -
02/07:30pm 21.1 SSE 15 17 1019.0 - - - - - - - - -
02/07:00pm 21.1 SSE 15 19 1018.9 - - - - - - - - -
02/06:30pm 21.1 SSE 15 18 1018.7 - - - - - - - - -
02/06:00pm 21.2 SSE 15 18 1018.3 - - - - - - - - -
02/05:30pm 21.3 SSE 16 19 1018.1 - - - - - - - - -
02/05:00pm 21.4 S 17 19 1017.8 - - - - - - - - -
02/04:30pm 21.5 SSE 17 19 1017.8 - - - - - - - - -
02/04:00pm 21.5 SSE 17 20 1017.5 - - - - - - - - -
02/03:30pm 21.9 S 17 19 1017.6 - - - - - - - - -
02/03:00pm 21.7 S 17 20 1017.5 - - - - - - - - -
02/02:30pm 21.7 S 18 21 1017.7 - - - - - - - - -
02/02:00pm 21.5 S 18 21 1017.6 - - - - - - - - -
02/01:30pm 21.4 S 18 21 1017.9 - - - - - - - - -
02/01:00pm 21.4 S 18 20 1018.0 - - - - - - - - -
02/12:30pm 21.6 S 19 21 1018.6 - - - - - - - - -
02/12:00pm 21.6 S 19 21 1018.9 - - - - - - - - -
02/11:30am 21.7 S 19 22 1019.4 - - - - - - - - -
02/11:00am 21.7 S 19 21 1019.7 - - - - - - - - -
02/10:30am 21.2 S 18 22 1020.2 - - - - - - - - -
02/10:00am 22.6 SSE 13 16 1020.5 - - - - - - - - -
02/09:30am 23.0 SSE 13 15 1020.7 - - - - - - - - -
02/09:00am 22.9 SSE 13 16 1020.5 - - - - - - - - -
02/08:30am 22.8 SE 13 15 1020.4 - - - - - - - - -
02/08:00am 22.7 SSE 14 16 1020.1 - - - - - - - - -
02/07:30am 22.6 SSE 15 17 1020.0 - - - - - - - - -
02/07:00am 22.4 SSE 14 16 1019.5 - - - - - - - - -
02/06:30am 22.1 SSE 16 18 1019.3 - - - - - - - - -
02/06:00am 22.0 SSE 17 20 1018.9 - - - - - - - - -
02/05:30am 22.0 SSE 15 17 1018.6 - - - - - - - - -
02/05:00am 22.0 SSE 16 19 1018.3 - - - - - - - - -
02/04:30am 22.0 SSE 15 18 1018.4 - - - - - - - - -
02/04:00am 22.0 SSE 16 18 1018.6 - - - - - - - - -
02/03:30am 22.0 SSE 15 18 1018.6 - - - - - - - - -
02/03:00am 21.9 SE 14 17 1018.6 - - - - - - - - -
02/02:30am 22.0 SE 15 19 1018.8 - - - - - - - - -
02/02:00am 22.1 SE 16 18 1019.0 - - - - - - - - -
02/01:30am 22.0 SE 15 17 1019.4 - - - - - - - - -
02/01:00am 22.1 SE 15 18 1019.7 - - - - - - - - -
02/12:30am 22.2 SE 16 19 1020.0 - - - - - - - - -
02/12:00am 22.2 SE 17 19 1020.1 - - - - - - - - -
 
Date/Time
EST
Temp

°C
Wind Pressure Rain
since 9am
mm
Weather Cloud Vis
km
Sea
Height
m
Swell
Dir
 
Speed
knots
Gust
knots
hPa Trend Height
m
Period
s
Dir
01/11:30pm 22.2 SE 16 18 1020.5 - - - - - - - - -
01/11:00pm 22.3 SE 15 18 1020.7 - - - - - - - - -
01/10:30pm 22.3 SE 15 19 1021.0 - - - - - - - - -
01/10:00pm 22.3 SE 15 18 1021.1 - - - - - - - - -
01/09:30pm 22.4 SE 15 18 1021.2 - - - - - - - - -
01/09:00pm 22.4 SE 16 18 1021.0 - - - - - - - - -
01/08:30pm 22.4 SE 16 19 1020.9 - - - - - - - - -
01/08:00pm 22.4 SE 17 19 1020.6 - - - - - - - - -
01/07:30pm 22.4 SE 17 20 1020.4 - - - - - - - - -
01/07:00pm 22.4 SE 18 21 1020.0 - - - - - - - - -
01/06:30pm 22.3 SSE 18 21 1020.0 - - - - - - - - -
01/06:00pm 22.4 SSE 18 21 1019.6 - - - - - - - - -
01/05:30pm 22.4 SSE 18 20 1019.4 - - - - - - - - -
01/05:00pm 22.4 SSE 17 19 1019.1 - - - - - - - - -
01/04:30pm 22.7 SE 16 19 1019.1 - - - - - - - - -
01/04:00pm 22.7 SE 17 20 1018.8 - - - - - - - - -
01/03:30pm 22.8 SE 17 20 1018.8 - - - - - - - - -
01/03:00pm 23.1 SE 17 19 1018.8 - - - - - - - - -
01/02:30pm 23.2 SSE 17 19 1019.1 - - - - - - - - -
01/02:00pm 23.3 SE 19 23 1019.3 - - - - - - - - -
01/01:30pm 23.1 SE 16 19 1019.5 - - - - - - - - -
01/01:00pm 23.3 SSE 16 19 1019.8 - - - - - - - - -
01/12:30pm 23.2 SE 16 20 1020.4 - - - - - - - - -
01/12:00pm 23.2 SSE 16 17 1020.9 - - - - - - - - -
01/11:30am 22.9 SSE 15 18 1021.4 - - - - - - - - -
01/11:00am 23.2 SE 13 16 1021.6 - - - - - - - - -
01/10:30am 22.9 SE 15 17 1021.8 - - - - - - - - -
01/10:00am 23.0 SE 14 17 1021.9 - - - - - - - - -
01/09:30am 23.0 SE 15 18 1022.1 - - - - - - - - -
01/09:00am 22.8 ESE 16 18 1022.0 - - - - - - - - -
01/08:30am 22.9 ESE 16 19 1021.8 - - - - - - - - -
01/08:00am 22.8 ESE 16 18 1021.8 - - - - - - - - -
01/07:30am 22.7 SE 15 18 1021.6 - - - - - - - - -
01/07:00am 22.5 SE 15 17 1021.2 - - - - - - - - -
01/06:30am 22.0 ESE 15 18 1021.3 - - - - - - - - -
01/06:00am 22.5 SE 14 17 1021.0 - - - - - - - - -
01/05:30am 22.5 SE 14 16 1020.9 - - - - - - - - -
01/05:00am 22.4 SE 14 16 1020.6 - - - - - - - - -
01/04:30am 22.5 SE 14 17 1020.5 - - - - - - - - -
01/04:00am 22.4 SE 15 17 1020.1 - - - - - - - - -
01/03:30am 22.4 ESE 15 17 1020.3 - - - - - - - - -
01/03:00am 22.5 ESE 14 17 1020.2 - - - - - - - - -
01/02:30am 22.5 ESE 15 17 1020.3 - - - - - - - - -
01/02:00am 22.5 ESE 17 20 1020.7 - - - - - - - - -
01/01:30am 22.3 ESE 9 11 1021.0 - - - - - - - - -
01/01:00am 22.0 ESE 10 11 1021.2 - - - - - - - - -
01/12:30am 21.9 E 9 11 1021.5 - - - - - - - - -
01/12:00am 22.0 E 12 13 1021.4 - - - - - - - - -
 
Date/Time
EST
Temp

°C
Wind Pressure Rain
since 9am
mm
Weather Cloud Vis
km
Sea
Height
m
Swell
Dir
 
Speed
knots
Gust
knots
hPa Trend Height
m
Period
s
Dir
30/11:30pm 21.8 E 12 14 1021.6 - - - - - - - - -
30/11:00pm 21.4 ENE 17 21 1021.5 - - - - - - - - -
30/10:30pm 21.3 E 23 26 1021.6 - - - - - - - - -
30/10:00pm 22.4 E 17 20 1021.9 - - - - - - - - -
30/09:30pm 22.1 ENE 18 22 1022.0 - - - - - - - - -
30/09:00pm 21.9 E 20 23 1021.9 - - - - - - - - -
30/08:30pm 22.5 ESE 17 21 1021.9 - - - - - - - - -
30/08:00pm 21.8 ESE 20 23 1021.9 - - - - - - - - -
30/07:30pm 22.3 ESE 18 21 1021.6 - - - - - - - - -
30/07:00pm 22.6 ESE 18 21 1021.2 - - - - - - - - -
30/06:30pm 22.6 E 17 20 1021.0 - - - - - - - - -
30/06:00pm 22.2 E 15 17 1020.6 - - - - - - - - -
30/05:30pm 21.8 ESE 16 18 1020.6 - - - - - - - - -
30/05:00pm 21.4 ESE 20 21 1020.4 - - - - - - - - -
30/04:30pm 21.7 E 19 23 1020.3 - - - - - - - - -
30/04:00pm 22.2 E 17 21 1019.8 - - - - - - - - -
30/03:30pm 21.1 ESE 17 20 1019.9 - - - - - - - - -
30/03:00pm 21.1 ESE 14 16 1019.8 - - - - - - - - -
30/02:59pm 21.1 ESE 14 16 1019.8 - - - - - - - - -
30/02:37pm 20.0 E 20 22 1019.9 - - - - - - - - -
30/02:30pm 21.0 E 10 11 1020.0 - - - - - - - - -
30/02:00pm 20.9 E 18 23 1020.0 - - - - - - - - -
30/01:30pm 20.8 E 17 24 1020.2 - - - - - - - - -
30/01:00pm 21.6 ESE 18 21 1020.5 - - - - - - - - -
30/12:30pm 22.5 ESE 17 20 1021.2 - - - - - - - - -
30/12:00pm 21.2 SE 20 23 1021.5 - - - - - - - - -
30/11:30am 22.5 ESE 18 24 1022.1 - - - - - - - - -
30/11:00am 22.5 ESE 18 23 1022.2 - - - - - - - - -
30/10:30am 22.5 SE 15 23 1022.6 - - - - - - - - -
30/10:00am 23.2 ESE 17 20 1022.6 - - - - - - - - -
30/09:30am 23.3 ESE 18 21 1022.9 - - - - - - - - -
30/09:00am 23.3 E 19 21 1022.7 - - - - - - - - -
30/08:30am 23.4 E 21 24 1022.4 - - - - - - - - -
30/08:00am 23.2 E 24 27 1021.7 - - - - - - - - -
30/07:30am 23.1 E 22 26 1021.5 - - - - - - - - -
30/07:00am 22.9 E 22 26 1021.1 - - - - - - - - -
30/06:30am 22.4 ESE 21 27 1021.4 - - - - - - - - -
30/06:00am 22.2 ESE 21 24 1021.1 - - - - - - - - -
30/05:30am 22.2 E 23 26 1021.3 - - - - - - - - -
30/05:00am 20.9 ESE 20 27 1021.1 - - - - - - - - -
30/04:30am 21.7 ESE 21 25 1021.2 - - - - - - - - -
30/04:00am 21.9 SE 19 22 1021.2 - - - - - - - - -
30/03:50am 21.4 SE 20 23 1021.3 - - - - - - - - -
30/03:30am 21.0 E 17 21 1021.4 - - - - - - - - -
30/03:13am 20.3 ENE 21 30 1021.6 - - - - - - - - -
30/03:00am 22.4 ESE 21 24 1021.5 - - - - - - - - -

Other Formats:

Comma delimited format used in spreadsheet applications
http://www.bom.gov.au/fwo/IDQ60701/IDQ60701.94379.axf

JavaScript Object Notation format (JSON) in row-major order
http://www.bom.gov.au/fwo/IDQ60701/IDQ60701.94379.json